createdAt,value
2022-10-02T00:00:52.318Z,1.90
2022-10-02T00:02:29.622Z,1.97
2022-10-02T00:04:03.903Z,1.70
2022-10-02T00:05:41.883Z,1.87
2022-10-02T00:07:16.449Z,1.90
2022-10-02T00:08:52.960Z,1.80
2022-10-02T00:10:32.143Z,1.80
2022-10-02T00:12:08.647Z,1.60
2022-10-02T00:13:46.956Z,1.70
2022-10-02T00:15:24.045Z,1.60
2022-10-02T00:17:01.117Z,1.80
2022-10-02T00:18:38.166Z,1.63
2022-10-02T00:20:15.453Z,1.80
2022-10-02T00:22:10.952Z,1.80
2022-10-02T00:23:46.673Z,1.63
2022-10-02T00:25:26.848Z,1.90
2022-10-02T00:27:04.831Z,1.73
2022-10-02T00:28:49.186Z,2.47
2022-10-02T00:30:22.366Z,1.70
2022-10-02T00:32:04.230Z,1.67
2022-10-02T00:33:50.386Z,2.30
2022-10-02T00:35:45.355Z,1.90
2022-10-02T00:37:26.701Z,1.93
2022-10-02T00:39:06.905Z,1.80
2022-10-02T00:41:04.517Z,1.90
2022-10-02T00:42:56.621Z,1.70
2022-10-02T00:44:45.851Z,1.93
2022-10-02T00:46:48.380Z,2.10
2022-10-02T00:48:43.519Z,1.77
2022-10-02T00:50:31.151Z,2.20
2022-10-02T00:52:17.415Z,1.80
2022-10-02T00:54:03.100Z,1.97
2022-10-02T00:55:57.359Z,2.10
2022-10-02T00:57:42.749Z,2.13
2022-10-02T00:59:34.771Z,1.80
2022-10-02T01:01:12.695Z,1.83
2022-10-02T01:03:04.232Z,1.83
2022-10-02T01:04:39.667Z,2.10
2022-10-02T01:06:12.713Z,2.10
2022-10-02T01:07:49.919Z,1.70
2022-10-02T01:09:25.452Z,1.70
2022-10-02T01:10:57.728Z,1.70
2022-10-02T01:12:30.776Z,1.90
2022-10-02T01:14:04.550Z,1.73
2022-10-02T01:15:40.437Z,2.30
2022-10-02T01:17:23.837Z,1.93
2022-10-02T01:18:57.027Z,1.90
2022-10-02T01:20:38.981Z,1.80
2022-10-02T01:22:18.926Z,1.70
2022-10-02T01:23:58.125Z,2.17
2022-10-02T01:25:32.870Z,1.97
2022-10-02T01:27:05.897Z,1.90
2022-10-02T01:28:39.245Z,1.90
2022-10-02T01:30:14.453Z,1.90
2022-10-02T01:31:47.725Z,1.90
2022-10-02T01:33:21.282Z,1.80
2022-10-02T01:34:55.228Z,1.80
2022-10-02T01:36:28.900Z,2.07
2022-10-02T01:38:04.319Z,1.67
2022-10-02T01:39:38.249Z,1.83
2022-10-02T01:41:12.282Z,2.03
2022-10-02T01:42:45.331Z,1.77
2022-10-02T01:44:18.515Z,2.10
2022-10-02T01:45:57.979Z,1.90
2022-10-02T01:47:38.557Z,2.23
2022-10-02T01:49:39.049Z,1.80
2022-10-02T01:51:28.558Z,2.13
2022-10-02T01:53:09.356Z,2.00
2022-10-02T01:54:53.459Z,2.50
2022-10-02T01:56:35.088Z,2.50
2022-10-02T01:58:20.333Z,2.20
2022-10-02T02:00:07.409Z,2.47
2022-10-02T02:01:53.124Z,2.50
2022-10-02T02:03:38.202Z,2.10
2022-10-02T02:05:17.654Z,2.40
2022-10-02T02:06:58.155Z,1.90
2022-10-02T02:08:35.673Z,2.20
2022-10-02T02:10:18.863Z,1.90
2022-10-02T02:11:59.185Z,2.10
2022-10-02T02:13:38.133Z,1.83
2022-10-02T02:15:15.923Z,1.90
2022-10-02T02:16:53.547Z,2.30
2022-10-02T02:18:34.130Z,2.00
2022-10-02T02:20:10.543Z,2.33
2022-10-02T02:21:48.313Z,2.20
2022-10-02T02:23:26.935Z,2.30
2022-10-02T02:25:03.835Z,2.17
2022-10-02T02:26:38.628Z,2.27
2022-10-02T02:28:15.968Z,2.00
2022-10-02T02:29:52.172Z,2.10
2022-10-02T02:31:30.634Z,2.40
2022-10-02T02:33:08.157Z,2.10
2022-10-02T02:34:44.678Z,2.43
2022-10-02T02:36:21.926Z,2.17
2022-10-02T02:37:59.476Z,2.33
2022-10-02T02:39:39.318Z,2.30
2022-10-02T02:41:16.566Z,2.50
2022-10-02T02:42:58.714Z,2.43
2022-10-02T02:44:36.742Z,2.30
2022-10-02T02:46:16.330Z,2.40
2022-10-02T02:47:52.690Z,2.10
2022-10-02T02:49:30.263Z,2.23
2022-10-02T02:51:08.313Z,2.13
2022-10-02T02:52:45.356Z,2.60
2022-10-02T02:54:23.055Z,2.33
2022-10-02T02:55:59.313Z,2.37
2022-10-02T02:57:38.965Z,2.03
2022-10-02T02:59:14.057Z,2.30
2022-10-02T03:00:48.533Z,2.60
2022-10-02T03:02:21.704Z,2.70
2022-10-02T03:03:54.804Z,2.40
2022-10-02T03:05:29.553Z,3.00
2022-10-02T03:07:05.917Z,2.03
2022-10-02T03:08:39.092Z,2.27
2022-10-02T03:10:19.826Z,2.60
2022-10-02T03:12:02.409Z,2.60
2022-10-02T03:13:49.942Z,2.13
2022-10-02T03:15:34.459Z,2.20
2022-10-02T03:17:20.697Z,2.47
2022-10-02T03:19:07.604Z,2.50
2022-10-02T03:20:43.958Z,2.37
2022-10-02T03:22:26.038Z,2.53
2022-10-02T03:24:07.361Z,2.57
2022-10-02T03:25:48.562Z,2.50
2022-10-02T03:27:30.263Z,2.80
2022-10-02T03:29:13.214Z,2.23
2022-10-02T03:30:46.822Z,2.33
2022-10-02T03:32:23.112Z,2.23
2022-10-02T03:33:58.426Z,2.00
2022-10-02T03:35:32.925Z,2.37
2022-10-02T03:37:06.185Z,2.20
2022-10-02T03:38:40.397Z,2.17
2022-10-02T03:40:13.633Z,2.30
2022-10-02T03:41:46.152Z,2.30
2022-10-02T03:43:22.030Z,2.30
2022-10-02T03:44:55.073Z,2.27
2022-10-02T03:46:28.130Z,2.10
2022-10-02T03:48:02.731Z,2.10
2022-10-02T03:49:35.848Z,1.90
2022-10-02T03:51:08.881Z,2.63
2022-10-02T03:52:42.343Z,2.30
2022-10-02T03:54:18.755Z,2.53
2022-10-02T03:55:58.763Z,2.10
2022-10-02T03:57:34.896Z,2.57
2022-10-02T03:59:14.002Z,2.03
2022-10-02T04:00:53.553Z,2.10
2022-10-02T04:02:35.342Z,2.23
2022-10-02T04:04:15.018Z,2.20
2022-10-02T04:05:53.694Z,2.10
2022-10-02T04:07:31.895Z,2.10
2022-10-02T04:09:10.858Z,2.27
2022-10-02T04:10:50.627Z,2.00
2022-10-02T04:12:28.143Z,2.20
2022-10-02T04:14:07.100Z,2.30
2022-10-02T04:15:52.561Z,2.20
2022-10-02T04:17:29.866Z,2.20
2022-10-02T04:19:08.162Z,2.30
2022-10-02T04:20:46.809Z,2.17
2022-10-02T04:22:34.598Z,2.20
2022-10-02T04:24:17.485Z,2.50
2022-10-02T04:25:55.746Z,2.20
2022-10-02T04:27:36.085Z,2.10
2022-10-02T04:29:17.090Z,2.30
2022-10-02T04:30:53.416Z,2.10
2022-10-02T04:32:29.848Z,2.00
2022-10-02T04:34:04.322Z,2.23
2022-10-02T04:35:47.164Z,2.17
2022-10-02T04:37:33.492Z,2.20
2022-10-02T04:39:27.266Z,2.10
2022-10-02T04:41:17.602Z,2.13
2022-10-02T04:43:04.018Z,2.23
2022-10-02T04:44:51.796Z,2.20
2022-10-02T04:46:44.666Z,2.10
2022-10-02T04:48:58.823Z,2.50
2022-10-02T04:50:50.035Z,2.27
2022-10-02T04:52:42.580Z,2.60
2022-10-02T04:54:44.563Z,2.30
2022-10-02T04:56:52.685Z,2.37
2022-10-02T04:58:51.733Z,2.13
2022-10-02T05:00:27.037Z,2.50
2022-10-02T05:02:11.912Z,2.20
2022-10-02T05:04:20.424Z,2.10
2022-10-02T05:06:09.224Z,2.07
2022-10-02T05:07:54.958Z,2.43
2022-10-02T05:09:33.717Z,2.57
2022-10-02T05:11:28.764Z,2.37
2022-10-02T05:13:11.141Z,2.00
2022-10-02T05:15:04.841Z,2.33
2022-10-02T05:16:51.451Z,2.37
2022-10-02T05:18:57.349Z,2.83
2022-10-02T05:20:50.212Z,2.20
2022-10-02T05:22:47.199Z,2.43
2022-10-02T05:24:36.234Z,2.40
2022-10-02T05:26:33.198Z,2.67
2022-10-02T05:28:29.851Z,2.30
2022-10-02T05:30:10.215Z,1.90
2022-10-02T05:31:55.177Z,2.63
2022-10-02T05:33:49.940Z,2.50
2022-10-02T05:35:38.290Z,2.50
2022-10-02T05:37:29.422Z,2.60
2022-10-02T05:39:07.186Z,2.60
2022-10-02T05:40:46.652Z,2.13
2022-10-02T05:42:29.161Z,1.87
2022-10-02T05:44:08.441Z,2.17
2022-10-02T05:45:49.529Z,1.87
2022-10-02T05:47:29.943Z,2.07
2022-10-02T05:49:07.639Z,2.00
2022-10-02T05:50:42.711Z,2.00
2022-10-02T05:52:19.675Z,1.87
2022-10-02T05:53:58.815Z,2.07
2022-10-02T05:55:36.473Z,1.90
2022-10-02T05:57:17.821Z,1.90
2022-10-02T05:58:57.707Z,2.27
2022-10-02T06:00:34.045Z,2.00
2022-10-02T06:02:18.962Z,2.00
2022-10-02T06:03:55.674Z,1.60
2022-10-02T06:05:36.687Z,2.03
2022-10-02T06:07:11.478Z,2.00
2022-10-02T06:08:49.023Z,2.10
2022-10-02T06:10:28.318Z,1.90
2022-10-02T06:12:05.388Z,2.07
2022-10-02T06:13:45.059Z,1.90
2022-10-02T06:15:23.690Z,2.40
2022-10-02T06:17:01.979Z,2.43
2022-10-02T06:18:38.430Z,2.13
2022-10-02T06:20:20.572Z,2.73
2022-10-02T06:21:57.622Z,2.20
2022-10-02T06:23:37.150Z,2.20
2022-10-02T06:25:18.032Z,2.47
2022-10-02T06:27:00.666Z,2.20
2022-10-02T06:28:38.952Z,2.40
2022-10-02T06:30:14.099Z,2.30
2022-10-02T06:31:53.886Z,2.70
2022-10-02T06:33:30.102Z,2.30
2022-10-02T06:35:07.671Z,2.00
2022-10-02T06:37:01.528Z,1.90
2022-10-02T06:38:48.780Z,2.53
2022-10-02T06:40:47.623Z,2.40
2022-10-02T06:42:32.758Z,1.90
2022-10-02T06:44:17.827Z,1.97
2022-10-02T06:46:00.774Z,2.40
2022-10-02T06:47:50.615Z,2.10
2022-10-02T06:49:37.425Z,2.10
2022-10-02T06:51:19.463Z,2.20
2022-10-02T06:52:59.205Z,2.30
2022-10-02T06:54:46.324Z,1.87
2022-10-02T06:56:35.757Z,1.83
2022-10-02T06:58:28.009Z,2.23
2022-10-02T07:00:13.581Z,2.00
2022-10-02T07:01:57.540Z,1.60
2022-10-02T07:03:44.201Z,2.20
2022-10-02T07:05:44.297Z,1.97
2022-10-02T07:07:30.789Z,1.77
2022-10-02T07:09:37.800Z,2.17
2022-10-02T07:11:19.676Z,2.27
2022-10-02T07:13:22.817Z,2.10
2022-10-02T07:15:21.922Z,2.30
2022-10-02T07:17:19.247Z,2.10
2022-10-02T07:19:11.437Z,2.00
2022-10-02T07:20:53.766Z,1.83
2022-10-02T07:22:55.011Z,1.90
2022-10-02T07:24:43.145Z,1.87
2022-10-02T07:26:38.914Z,1.97
2022-10-02T07:28:19.228Z,2.73
2022-10-02T07:30:00.808Z,2.03
2022-10-02T07:31:48.824Z,2.20
2022-10-02T07:33:32.878Z,2.00
2022-10-02T07:35:26.177Z,2.00
2022-10-02T07:37:09.792Z,2.10
2022-10-02T07:39:09.953Z,2.07
2022-10-02T07:40:59.291Z,2.47
2022-10-02T07:42:54.876Z,2.23
2022-10-02T07:44:57.685Z,2.47
2022-10-02T07:46:41.512Z,2.83
2022-10-02T07:48:29.553Z,2.17
2022-10-02T07:50:09.856Z,2.27
2022-10-02T07:51:50.285Z,2.10
2022-10-02T07:53:30.966Z,2.37
2022-10-02T07:55:14.950Z,2.53
2022-10-02T07:56:50.350Z,2.00
2022-10-02T07:58:33.533Z,2.00
2022-10-02T08:00:12.988Z,2.10
2022-10-02T08:01:50.695Z,1.90
2022-10-02T08:03:28.881Z,2.37
2022-10-02T08:05:06.097Z,2.13
2022-10-02T08:06:39.830Z,2.40
2022-10-02T08:08:19.284Z,2.30
2022-10-02T08:09:53.393Z,2.13
2022-10-02T08:11:30.427Z,2.57
2022-10-02T08:13:12.054Z,2.20
2022-10-02T08:14:48.124Z,2.27
2022-10-02T08:16:23.774Z,2.67
2022-10-02T08:18:22.789Z,2.00
2022-10-02T08:20:00.555Z,2.10
2022-10-02T08:21:41.417Z,2.10
2022-10-02T08:23:22.753Z,2.30
2022-10-02T08:24:59.881Z,2.53
2022-10-02T08:26:37.989Z,2.17
2022-10-02T08:28:19.641Z,2.20
2022-10-02T08:29:58.312Z,2.33
2022-10-02T08:31:31.461Z,2.10
2022-10-02T08:33:14.820Z,2.30
2022-10-02T08:34:48.005Z,1.90
2022-10-02T08:36:59.453Z,2.63
2022-10-02T08:38:41.419Z,2.90
2022-10-02T08:40:48.646Z,2.20
2022-10-02T08:43:09.493Z,2.20
2022-10-02T08:45:16.199Z,2.07
2022-10-02T08:47:21.196Z,1.90
2022-10-02T08:49:28.371Z,2.20
2022-10-02T08:51:33.410Z,2.10
2022-10-02T08:53:57.328Z,1.90
2022-10-02T08:56:03.265Z,2.23
2022-10-02T08:58:05.429Z,2.30
2022-10-02T09:00:12.861Z,2.03
2022-10-02T09:02:09.425Z,2.13
2022-10-02T09:04:18.059Z,2.10
2022-10-02T09:06:24.368Z,2.27
2022-10-02T09:08:49.193Z,1.80
2022-10-02T09:10:58.855Z,2.37
2022-10-02T09:13:00.724Z,2.50
2022-10-02T09:14:54.449Z,2.57
2022-10-02T09:16:39.015Z,2.70
2022-10-02T09:18:19.260Z,2.23
2022-10-02T09:20:19.277Z,2.40
2022-10-02T09:21:58.153Z,2.50
2022-10-02T09:24:02.785Z,2.20
2022-10-02T09:25:45.514Z,2.10
2022-10-02T09:27:54.416Z,2.10
2022-10-02T09:29:59.742Z,2.00
2022-10-02T09:32:10.024Z,1.90
2022-10-02T09:34:17.665Z,2.00
2022-10-02T09:36:28.343Z,2.00
2022-10-02T09:38:27.211Z,2.10
2022-10-02T09:40:36.615Z,1.90
2022-10-02T09:42:37.708Z,2.10
2022-10-02T09:44:44.775Z,1.90
2022-10-02T09:46:38.354Z,2.00
2022-10-02T09:48:48.118Z,1.77
2022-10-02T09:51:10.109Z,1.77
2022-10-02T09:53:06.701Z,2.00
2022-10-02T09:55:22.443Z,1.60
2022-10-02T09:57:31.654Z,1.97
2022-10-02T09:59:27.661Z,2.20
2022-10-02T10:01:21.410Z,2.77
2022-10-02T10:03:25.597Z,2.30
2022-10-02T10:05:43.871Z,1.97
2022-10-02T10:08:10.322Z,1.80
2022-10-02T10:10:10.928Z,2.13
2022-10-02T10:12:19.939Z,1.87
2022-10-02T10:14:47.693Z,1.47
2022-10-02T10:17:09.164Z,1.53
2022-10-02T10:19:15.480Z,1.70
2022-10-02T10:21:36.028Z,2.40
2022-10-02T10:23:35.768Z,2.60
2022-10-02T10:25:37.437Z,2.37
2022-10-02T10:27:38.702Z,2.30
2022-10-02T10:29:33.076Z,2.30
2022-10-02T10:31:48.854Z,2.67
2022-10-02T10:33:56.696Z,2.17
2022-10-02T10:35:53.843Z,2.07
2022-10-02T10:38:09.533Z,2.20
2022-10-02T10:40:21.173Z,2.27
2022-10-02T10:42:49.898Z,2.20
2022-10-02T10:45:03.785Z,2.63
2022-10-02T10:47:03.931Z,2.40
2022-10-02T10:48:55.093Z,2.20
2022-10-02T10:50:38.731Z,2.20
2022-10-02T10:52:23.363Z,2.30
2022-10-02T10:54:28.157Z,2.00
2022-10-02T10:56:28.745Z,2.37
2022-10-02T10:58:16.557Z,2.33
2022-10-02T11:00:11.211Z,2.70
2022-10-02T11:02:00.772Z,2.10
2022-10-02T11:04:10.489Z,2.00
2022-10-02T11:06:25.200Z,2.30
2022-10-02T11:08:15.259Z,2.07
2022-10-02T11:10:22.465Z,2.07
2022-10-02T11:12:17.721Z,2.37
2022-10-02T11:14:05.591Z,2.57
2022-10-02T11:16:11.238Z,2.20
2022-10-02T11:18:23.194Z,2.43
2022-10-02T11:20:16.213Z,1.90
2022-10-02T11:22:21.671Z,2.20
2022-10-02T11:24:20.660Z,2.07
2022-10-02T11:26:16.120Z,2.07
2022-10-02T11:28:13.926Z,2.53
2022-10-02T11:30:06.086Z,2.03
2022-10-02T11:31:59.951Z,2.30
2022-10-02T11:33:59.866Z,2.13
2022-10-02T11:35:50.738Z,2.37
2022-10-02T11:37:42.239Z,2.17
2022-10-02T11:39:47.109Z,1.80
2022-10-02T11:41:34.186Z,2.13
2022-10-02T11:43:30.795Z,2.10
2022-10-02T11:45:43.622Z,1.70
2022-10-02T11:47:47.103Z,1.93
2022-10-02T11:49:59.012Z,1.80
2022-10-02T11:51:48.440Z,2.30
2022-10-02T11:53:39.388Z,2.67
2022-10-02T11:55:30.115Z,2.27
2022-10-02T11:57:29.208Z,2.30
2022-10-02T11:59:24.250Z,2.17
2022-10-02T12:01:14.904Z,1.90
2022-10-02T12:02:56.161Z,1.80
2022-10-02T12:04:41.935Z,1.93
2022-10-02T12:06:23.415Z,1.50
2022-10-02T12:08:05.817Z,1.80
2022-10-02T12:09:50.584Z,2.00
2022-10-02T12:11:32.530Z,2.13
2022-10-02T12:13:29.644Z,2.00
2022-10-02T12:15:12.052Z,1.50
2022-10-02T12:16:58.148Z,1.57
2022-10-02T12:18:53.337Z,1.50
2022-10-02T12:21:01.009Z,1.27
2022-10-02T12:23:01.920Z,1.80
2022-10-02T12:25:02.392Z,1.53
2022-10-02T12:27:03.629Z,1.63
2022-10-02T12:28:45.302Z,1.40
2022-10-02T12:30:21.605Z,1.30
2022-10-02T12:32:08.148Z,1.60
2022-10-02T12:33:56.283Z,1.37
2022-10-02T12:36:08.555Z,1.20
2022-10-02T12:37:46.981Z,1.43
2022-10-02T12:39:35.072Z,1.27
2022-10-02T12:41:19.780Z,1.30
2022-10-02T12:43:20.711Z,1.40
2022-10-02T12:45:14.775Z,1.53
2022-10-02T12:47:12.604Z,1.37
2022-10-02T12:48:57.165Z,1.50
2022-10-02T12:50:47.459Z,1.30
2022-10-02T12:52:48.852Z,1.10
2022-10-02T12:54:54.141Z,1.67
2022-10-02T12:57:03.055Z,1.60
2022-10-02T12:58:48.048Z,1.50
2022-10-02T13:00:23.317Z,1.87
2022-10-02T13:03:00.422Z,1.57
2022-10-02T13:05:14.102Z,1.73
2022-10-02T13:07:16.035Z,1.50
2022-10-02T13:09:29.957Z,1.90
2022-10-02T13:11:14.577Z,1.50
2022-10-02T13:13:05.271Z,1.60
2022-10-02T13:14:54.830Z,2.00
2022-10-02T13:16:34.114Z,1.53
2022-10-02T13:18:35.040Z,2.20
2022-10-02T13:20:22.542Z,2.20
2022-10-02T13:22:05.061Z,1.80
2022-10-02T13:23:44.364Z,2.50
2022-10-02T13:25:31.984Z,1.70
2022-10-02T13:27:18.774Z,1.80
2022-10-02T13:29:27.224Z,1.90
2022-10-02T13:31:07.809Z,2.10
2022-10-02T13:33:02.137Z,1.27
2022-10-02T13:35:00.984Z,1.53
2022-10-02T13:36:45.716Z,1.50
2022-10-02T13:38:42.639Z,2.00
2022-10-02T13:40:24.896Z,2.07
2022-10-02T13:42:18.004Z,1.70
2022-10-02T13:44:09.793Z,1.80
2022-10-02T13:45:49.877Z,1.63
2022-10-02T13:47:36.210Z,1.63
2022-10-02T13:49:19.537Z,1.80
2022-10-02T13:51:01.201Z,1.90
2022-10-02T13:52:42.922Z,2.10
2022-10-02T13:54:34.124Z,2.00
2022-10-02T13:56:15.851Z,2.40
2022-10-02T13:58:22.593Z,2.37
2022-10-02T14:00:03.420Z,1.83
2022-10-02T14:01:55.336Z,1.97
2022-10-02T14:03:50.254Z,2.60
2022-10-02T14:05:42.492Z,1.87
2022-10-02T14:07:33.190Z,2.30
2022-10-02T14:09:35.324Z,2.33
2022-10-02T14:11:18.986Z,2.30
2022-10-02T14:13:07.650Z,1.90
2022-10-02T14:15:04.307Z,2.00
2022-10-02T14:16:53.422Z,1.97
2022-10-02T14:18:55.519Z,1.90
2022-10-02T14:20:41.353Z,1.97
2022-10-02T14:22:29.465Z,2.20
2022-10-02T14:24:46.108Z,2.30
2022-10-02T14:26:32.074Z,2.10
2022-10-02T14:28:26.534Z,2.20
2022-10-02T14:30:04.585Z,2.10
2022-10-02T14:32:10.444Z,2.70
2022-10-02T14:34:22.028Z,2.40
2022-10-02T14:36:03.999Z,1.90
2022-10-02T14:38:05.723Z,2.57
2022-10-02T14:39:42.449Z,2.40
2022-10-02T14:41:30.296Z,2.37
2022-10-02T14:43:21.246Z,2.20
2022-10-02T14:45:21.719Z,2.00
2022-10-02T14:47:15.614Z,2.30
2022-10-02T14:49:15.589Z,2.20
2022-10-02T14:51:10.168Z,2.33
2022-10-02T14:53:05.258Z,2.53
2022-10-02T14:54:54.425Z,2.10
2022-10-02T14:57:03.247Z,2.20
2022-10-02T14:58:47.900Z,2.23
2022-10-02T15:00:24.657Z,2.60
2022-10-02T15:02:20.538Z,2.60
2022-10-02T15:04:24.923Z,2.73
2022-10-02T15:06:08.439Z,1.70
2022-10-02T15:07:42.515Z,1.77
2022-10-02T15:09:21.162Z,2.00
2022-10-02T15:10:54.869Z,2.40
2022-10-02T15:12:43.669Z,2.13
2022-10-02T15:14:20.764Z,2.40
2022-10-02T15:16:18.844Z,2.97
2022-10-02T15:18:14.801Z,3.23
2022-10-02T15:19:51.090Z,2.90
2022-10-02T15:21:30.944Z,8.43
2022-10-02T15:23:06.757Z,2.80
2022-10-02T15:24:44.761Z,3.00
2022-10-02T15:26:34.860Z,3.53
2022-10-02T15:28:35.663Z,2.97
2022-10-02T15:30:21.820Z,2.50
2022-10-02T15:32:20.994Z,2.73
2022-10-02T15:34:05.048Z,3.30
2022-10-02T15:36:06.963Z,2.40
2022-10-02T15:37:47.461Z,2.57
2022-10-02T15:39:37.404Z,2.47
2022-10-02T15:41:40.025Z,2.57
2022-10-02T15:43:38.160Z,2.63
2022-10-02T15:45:30.832Z,2.83
2022-10-02T15:47:15.726Z,3.13
2022-10-02T15:48:59.842Z,2.40
2022-10-02T15:50:46.130Z,2.43
2022-10-02T15:52:30.996Z,3.10
2022-10-02T15:54:16.094Z,3.03
2022-10-02T15:55:54.297Z,3.53
2022-10-02T15:57:46.773Z,2.60
2022-10-02T15:59:31.965Z,2.83
2022-10-02T16:01:24.437Z,3.37
2022-10-02T16:03:15.987Z,2.63
2022-10-02T16:05:00.458Z,2.87
2022-10-02T16:06:53.203Z,2.83
2022-10-02T16:09:02.196Z,2.80
2022-10-02T16:10:44.112Z,2.90
2022-10-02T16:12:38.531Z,2.87
2022-10-02T16:14:15.962Z,2.63
2022-10-02T16:15:53.277Z,3.07
2022-10-02T16:17:53.245Z,3.90
2022-10-02T16:19:40.957Z,4.03
2022-10-02T16:21:39.141Z,3.97
2022-10-02T16:23:26.607Z,3.17
2022-10-02T16:25:21.781Z,3.77
2022-10-02T16:27:21.054Z,3.00
2022-10-02T16:29:04.895Z,3.03
2022-10-02T16:30:43.398Z,3.13
2022-10-02T16:32:31.018Z,3.20
2022-10-02T16:34:17.426Z,2.90
2022-10-02T16:35:58.845Z,3.17
2022-10-02T16:37:46.560Z,3.03
2022-10-02T16:39:42.249Z,3.20
2022-10-02T16:41:27.325Z,3.60
2022-10-02T16:43:40.340Z,3.40
2022-10-02T16:45:31.200Z,2.97
2022-10-02T16:47:11.828Z,3.00
2022-10-02T16:48:54.052Z,3.40
2022-10-02T16:50:33.578Z,3.27
2022-10-02T16:52:16.982Z,3.27
2022-10-02T16:53:55.515Z,3.10
2022-10-02T16:55:35.338Z,2.73
2022-10-02T16:57:20.947Z,2.93
2022-10-02T16:59:05.320Z,3.30
2022-10-02T17:00:51.525Z,2.83
2022-10-02T17:02:33.223Z,3.30
2022-10-02T17:04:19.085Z,2.90
2022-10-02T17:05:56.306Z,3.13
2022-10-02T17:07:41.478Z,3.30
2022-10-02T17:09:22.022Z,3.10
2022-10-02T17:11:07.742Z,2.83
2022-10-02T17:12:47.959Z,3.10
2022-10-02T17:14:26.165Z,3.37
2022-10-02T17:16:06.988Z,3.60
2022-10-02T17:17:56.001Z,3.13
2022-10-02T17:19:31.802Z,3.77
2022-10-02T17:21:13.781Z,3.23
2022-10-02T17:23:03.592Z,3.60
2022-10-02T17:24:42.931Z,3.90
2022-10-02T17:26:29.354Z,4.07
2022-10-02T17:28:09.430Z,4.00
2022-10-02T17:29:52.843Z,4.33
2022-10-02T17:31:35.479Z,4.13
2022-10-02T17:33:16.167Z,4.70
2022-10-02T17:34:50.453Z,4.70
2022-10-02T17:36:34.446Z,4.43
2022-10-02T17:38:36.701Z,4.90
2022-10-02T17:40:17.899Z,4.60
2022-10-02T17:41:56.355Z,4.53
2022-10-02T17:43:39.960Z,4.47
2022-10-02T17:45:27.390Z,4.63
2022-10-02T17:47:48.176Z,4.37
2022-10-02T17:49:30.919Z,4.70
2022-10-02T17:51:51.302Z,3.87
2022-10-02T17:53:56.138Z,3.60
2022-10-02T17:56:03.062Z,4.17
2022-10-02T17:57:51.808Z,4.10
2022-10-02T17:59:51.413Z,4.03
2022-10-02T18:01:36.707Z,4.40
2022-10-02T18:03:33.360Z,4.23
2022-10-02T18:05:29.195Z,4.30
2022-10-02T18:07:21.002Z,3.70
2022-10-02T18:09:17.527Z,3.97
2022-10-02T18:11:04.015Z,3.77
2022-10-02T18:13:01.021Z,4.50
2022-10-02T18:15:06.254Z,4.70
2022-10-02T18:16:51.710Z,5.70
2022-10-02T18:18:31.841Z,5.60
2022-10-02T18:20:16.387Z,6.13
2022-10-02T18:22:06.706Z,5.53
2022-10-02T18:24:01.948Z,4.53
2022-10-02T18:25:58.964Z,3.97
2022-10-02T18:27:58.983Z,4.30
2022-10-02T18:29:47.184Z,4.47
2022-10-02T18:31:54.686Z,4.60
2022-10-02T18:33:51.632Z,4.00
2022-10-02T18:35:45.433Z,4.00
2022-10-02T18:37:34.721Z,4.10
2022-10-02T18:39:20.657Z,4.20
2022-10-02T18:41:19.745Z,3.40
2022-10-02T18:43:15.477Z,3.50
2022-10-02T18:44:58.048Z,4.27
2022-10-02T18:46:41.804Z,3.63
2022-10-02T18:48:33.351Z,3.30
2022-10-02T18:50:32.654Z,3.03
2022-10-02T18:52:34.942Z,3.57
2022-10-02T18:54:21.041Z,3.60
2022-10-02T18:56:04.985Z,4.00
2022-10-02T18:57:52.848Z,4.20
2022-10-02T18:59:38.049Z,3.97
2022-10-02T19:01:22.583Z,4.10
2022-10-02T19:03:15.953Z,4.37
2022-10-02T19:05:04.029Z,4.40
2022-10-02T19:06:48.372Z,4.93
2022-10-02T19:08:26.230Z,4.83
2022-10-02T19:10:27.099Z,4.33
2022-10-02T19:12:12.875Z,4.03
2022-10-02T19:13:49.496Z,4.30
2022-10-02T19:15:27.063Z,3.77
2022-10-02T19:17:02.404Z,4.33
2022-10-02T19:18:37.223Z,4.00
2022-10-02T19:20:35.313Z,4.30
2022-10-02T19:22:16.068Z,3.50
2022-10-02T19:23:52.187Z,3.90
2022-10-02T19:25:26.157Z,4.37
2022-10-02T19:27:05.119Z,4.00
2022-10-02T19:28:46.591Z,4.00
2022-10-02T19:30:25.403Z,3.90
2022-10-02T19:32:00.944Z,3.60
2022-10-02T19:33:46.481Z,3.63
2022-10-02T19:35:28.389Z,3.90
2022-10-02T19:37:07.303Z,2.80
2022-10-02T19:38:42.324Z,3.03
2022-10-02T19:40:19.297Z,2.90
2022-10-02T19:41:56.546Z,2.70
2022-10-02T19:43:34.407Z,3.13
2022-10-02T19:45:15.249Z,2.93
2022-10-02T19:46:52.925Z,2.93
2022-10-02T19:48:28.344Z,3.03
2022-10-02T19:50:04.256Z,3.30
2022-10-02T19:51:44.819Z,2.80
2022-10-02T19:53:24.042Z,2.83
2022-10-02T19:55:04.369Z,2.67
2022-10-02T19:56:43.691Z,2.70
2022-10-02T19:58:20.998Z,2.80
2022-10-02T19:59:55.838Z,2.70
2022-10-02T20:01:31.976Z,3.00
2022-10-02T20:03:09.573Z,2.80
2022-10-02T20:04:42.630Z,2.60
2022-10-02T20:06:20.417Z,2.80
2022-10-02T20:07:57.151Z,2.70
2022-10-02T20:09:36.887Z,2.30
2022-10-02T20:11:18.493Z,2.63
2022-10-02T20:12:59.119Z,2.73
2022-10-02T20:14:39.713Z,2.67
2022-10-02T20:16:37.099Z,2.50
2022-10-02T20:18:10.961Z,2.73
2022-10-02T20:19:50.801Z,2.73
2022-10-02T20:21:29.701Z,2.60
2022-10-02T20:23:06.213Z,3.10
2022-10-02T20:24:49.069Z,2.80
2022-10-02T20:26:26.019Z,2.23
2022-10-02T20:28:03.835Z,2.83
2022-10-02T20:29:46.488Z,2.60
2022-10-02T20:31:28.973Z,2.63
2022-10-02T20:33:07.129Z,2.60
2022-10-02T20:34:43.686Z,2.60
2022-10-02T20:36:21.465Z,2.33
2022-10-02T20:37:55.470Z,2.70
2022-10-02T20:39:33.550Z,2.33
2022-10-02T20:41:15.507Z,2.53
2022-10-02T20:42:55.767Z,3.13
2022-10-02T20:44:31.634Z,3.07
2022-10-02T20:46:39.420Z,3.60
2022-10-02T20:49:03.577Z,4.80
2022-10-02T20:50:42.727Z,5.57
2022-10-02T20:52:55.929Z,6.23
2022-10-02T20:54:43.257Z,5.53
2022-10-02T20:56:42.276Z,5.10
2022-10-02T20:58:35.587Z,4.30
2022-10-02T21:00:16.888Z,3.20
2022-10-02T21:02:00.055Z,2.70
2022-10-02T21:04:09.090Z,2.70
2022-10-02T21:06:24.328Z,2.97
2022-10-02T21:08:29.728Z,2.60
2022-10-02T21:10:45.110Z,2.00
2022-10-02T21:12:44.252Z,2.40
2022-10-02T21:14:38.890Z,2.43
2022-10-02T21:16:43.529Z,2.57
2022-10-02T21:19:03.704Z,2.40
2022-10-02T21:21:06.983Z,2.40
2022-10-02T21:23:08.962Z,2.40
2022-10-02T21:25:19.139Z,2.53
2022-10-02T21:27:22.322Z,2.27
2022-10-02T21:29:19.005Z,2.47
2022-10-02T21:31:04.123Z,2.30
2022-10-02T21:32:59.440Z,2.50
2022-10-02T21:34:43.535Z,2.30
2022-10-02T21:36:23.527Z,2.30
2022-10-02T21:38:19.016Z,2.50
2022-10-02T21:40:22.944Z,2.27
2022-10-02T21:42:36.489Z,2.07
2022-10-02T21:44:37.297Z,2.13
2022-10-02T21:46:49.918Z,2.17
2022-10-02T21:48:55.692Z,2.33
2022-10-02T21:51:18.591Z,2.30
2022-10-02T21:53:41.395Z,2.70
2022-10-02T21:56:02.436Z,2.73
2022-10-02T21:58:10.036Z,2.30
2022-10-02T22:00:06.980Z,2.60
2022-10-02T22:02:16.538Z,2.33
2022-10-02T22:04:25.889Z,2.23
2022-10-02T22:06:21.052Z,2.30
2022-10-02T22:08:04.826Z,2.20
2022-10-02T22:09:48.461Z,2.90
2022-10-02T22:11:32.117Z,2.20
2022-10-02T22:13:22.022Z,2.53
2022-10-02T22:15:06.180Z,1.90
2022-10-02T22:16:50.659Z,2.07
2022-10-02T22:18:32.421Z,2.67
2022-10-02T22:20:40.633Z,2.17
2022-10-02T22:22:27.645Z,2.10
2022-10-02T22:24:24.392Z,2.33
2022-10-02T22:26:18.641Z,2.73
2022-10-02T22:28:02.895Z,2.20
2022-10-02T22:29:44.762Z,2.00
2022-10-02T22:31:45.159Z,2.57
2022-10-02T22:33:34.108Z,2.50
2022-10-02T22:35:20.015Z,1.97
2022-10-02T22:37:18.876Z,3.37
2022-10-02T22:39:00.569Z,2.80
2022-10-02T22:40:46.757Z,2.07
2022-10-02T22:42:25.797Z,2.43
2022-10-02T22:44:04.090Z,2.70
2022-10-02T22:45:44.673Z,2.47
2022-10-02T22:47:27.132Z,2.50
2022-10-02T22:49:05.945Z,2.40
2022-10-02T22:50:48.022Z,2.43
2022-10-02T22:52:26.232Z,2.20
2022-10-02T22:54:08.355Z,2.53
2022-10-02T22:55:50.908Z,2.40
2022-10-02T22:57:32.078Z,2.27
2022-10-02T22:59:12.134Z,2.03
2022-10-02T23:00:58.271Z,2.50
2022-10-02T23:02:34.911Z,2.97
2022-10-02T23:04:28.843Z,2.63
2022-10-02T23:06:05.612Z,2.40
2022-10-02T23:07:45.315Z,3.23
2022-10-02T23:09:25.927Z,2.77
2022-10-02T23:11:02.909Z,2.63
2022-10-02T23:12:41.526Z,2.13
2022-10-02T23:14:22.110Z,2.40
2022-10-02T23:16:01.093Z,2.63
2022-10-02T23:17:43.264Z,2.50
2022-10-02T23:19:23.100Z,2.40
2022-10-02T23:21:02.738Z,2.70
2022-10-02T23:22:39.831Z,2.40
2022-10-02T23:24:23.361Z,2.70
2022-10-02T23:26:03.530Z,2.80
2022-10-02T23:27:48.296Z,2.40
2022-10-02T23:29:31.692Z,2.53
2022-10-02T23:31:13.025Z,2.27
2022-10-02T23:32:49.971Z,2.30
2022-10-02T23:34:35.335Z,2.00
2022-10-02T23:36:20.013Z,2.67
2022-10-02T23:37:58.777Z,2.37
2022-10-02T23:39:45.113Z,2.00
2022-10-02T23:41:40.230Z,2.97
2022-10-02T23:43:17.964Z,2.70
2022-10-02T23:44:58.036Z,2.43
2022-10-02T23:46:37.082Z,2.40
2022-10-02T23:48:13.372Z,2.60
2022-10-02T23:49:49.968Z,2.50
2022-10-02T23:51:37.322Z,2.50
2022-10-02T23:53:31.455Z,2.33
2022-10-02T23:55:20.877Z,2.50
2022-10-02T23:57:21.165Z,2.60